Hecla, South Dakota
Current Conditions -  °F | °C
As of 5:53 PM on Thursday 18 Dec 2014 (Local Time) from KABR Reporting Station
Overcast Overcast  
Wind Chill: 16°   Ceiling: 1200
Heat Index: 25°   Visibility: 10mi
Dew Point: 21°   Wind: 9mph
Humidity: 85%   Direction: 170°S
Pressure: 30.13"   Gusts: NA
Location:  45.88°N, 98.15°W
Report Text: KABR 182353Z AUTO 17008KT 10SM OVC012 M04/M06 A3013 RMK AO2 SLP223 I6000 T10391061 11039 21050 55002
Loading
Personal Weather Stations






























Interactive Weather Map New forecast layout! Learn more

10-Day Weather Forecast

Advertisements
Track Severe Weather on mobile